createdAt,value
2023-01-03T00:01:33.746Z,20.37
2023-01-03T00:04:03.189Z,21.23
2023-01-03T00:06:34.092Z,23.63
2023-01-03T00:09:06.041Z,22.03
2023-01-03T00:11:53.364Z,20.90
2023-01-03T00:14:25.309Z,18.63
2023-01-03T00:16:56.401Z,22.50
2023-01-03T00:19:26.327Z,23.47
2023-01-03T00:21:55.140Z,21.23
2023-01-03T00:24:25.199Z,23.20
2023-01-03T00:26:54.123Z,23.07
2023-01-03T00:29:22.793Z,19.17
2023-01-03T00:31:51.339Z,17.40
2023-01-03T00:34:20.040Z,17.17
2023-01-03T00:36:49.445Z,20.13
2023-01-03T00:39:18.078Z,17.57
2023-01-03T00:41:48.054Z,17.30
2023-01-03T00:44:17.241Z,16.33
2023-01-03T00:46:46.232Z,17.83
2023-01-03T00:49:15.042Z,16.10
2023-01-03T00:51:43.864Z,16.37
2023-01-03T00:54:13.648Z,15.80
2023-01-03T00:56:44.404Z,18.53
2023-01-03T00:59:16.022Z,15.40
2023-01-03T01:01:47.493Z,16.63
2023-01-03T01:04:18.153Z,17.13
2023-01-03T01:06:48.669Z,17.13
2023-01-03T01:09:19.122Z,17.83
2023-01-03T01:11:48.114Z,18.80
2023-01-03T01:14:22.495Z,18.40
2023-01-03T01:16:53.115Z,19.27
2023-01-03T01:19:23.687Z,18.50
2023-01-03T01:21:52.382Z,17.10
2023-01-03T01:24:21.286Z,17.30
2023-01-03T01:26:50.659Z,16.93
2023-01-03T01:29:21.229Z,16.57
2023-01-03T01:31:50.194Z,15.63
2023-01-03T01:34:19.141Z,15.53
2023-01-03T01:36:48.619Z,15.97
2023-01-03T01:39:18.898Z,15.17
2023-01-03T01:42:06.413Z,15.63
2023-01-03T01:44:54.765Z,14.60
2023-01-03T01:47:40.161Z,13.63
2023-01-03T01:50:17.483Z,16.13
2023-01-03T01:52:53.846Z,15.33
2023-01-03T01:55:26.243Z,15.67
2023-01-03T01:57:55.676Z,14.97
2023-01-03T02:00:25.739Z,17.27
2023-01-03T02:02:55.407Z,17.67
2023-01-03T02:05:24.868Z,17.00
2023-01-03T02:07:54.914Z,17.10
2023-01-03T02:10:33.108Z,18.77
2023-01-03T02:13:10.362Z,17.90
2023-01-03T02:16:13.591Z,17.63
2023-01-03T02:18:49.986Z,17.87
2023-01-03T02:22:13.070Z,17.77
2023-01-03T02:25:08.039Z,16.47
2023-01-03T02:28:09.872Z,18.87
2023-01-03T02:30:42.510Z,16.13
2023-01-03T02:33:25.682Z,19.53
2023-01-03T02:36:01.874Z,18.17
2023-01-03T02:38:40.456Z,18.70
2023-01-03T02:41:18.439Z,17.90
2023-01-03T02:43:55.159Z,17.73
2023-01-03T02:46:32.038Z,17.90
2023-01-03T02:49:07.706Z,19.10
2023-01-03T02:51:40.143Z,26.00
2023-01-03T02:54:13.340Z,17.80
2023-01-03T02:56:46.180Z,18.90
2023-01-03T02:59:18.356Z,16.53
2023-01-03T03:01:51.284Z,17.57
2023-01-03T03:04:21.442Z,16.67
2023-01-03T03:06:58.370Z,17.27
2023-01-03T03:09:27.120Z,16.37
2023-01-03T03:12:25.458Z,18.50
2023-01-03T03:14:54.986Z,16.60
2023-01-03T03:17:30.612Z,15.30
2023-01-03T03:20:17.324Z,14.17
2023-01-03T03:23:06.657Z,15.47
2023-01-03T03:25:39.264Z,14.73
2023-01-03T03:28:28.439Z,14.57
2023-01-03T03:31:00.211Z,14.27
2023-01-03T03:33:34.080Z,13.20
2023-01-03T03:36:08.097Z,13.27
2023-01-03T03:38:40.377Z,13.43
2023-01-03T03:41:41.866Z,14.73
2023-01-03T03:44:37.226Z,12.83
2023-01-03T03:47:13.833Z,11.57
2023-01-03T03:49:48.701Z,12.17
2023-01-03T03:52:19.339Z,12.47
2023-01-03T03:54:54.612Z,13.37
2023-01-03T03:57:28.473Z,12.60
2023-01-03T04:00:01.655Z,10.70
2023-01-03T04:02:34.536Z,12.20
2023-01-03T04:05:09.079Z,13.13
2023-01-03T04:07:37.945Z,15.90
2023-01-03T04:10:07.941Z,21.40
2023-01-03T04:12:36.618Z,26.83
2023-01-03T04:15:07.153Z,20.70
2023-01-03T04:17:35.731Z,27.23
2023-01-03T04:20:06.282Z,22.23
2023-01-03T04:22:34.855Z,21.87
2023-01-03T04:25:03.459Z,21.40
2023-01-03T04:27:32.118Z,23.53
2023-01-03T04:30:01.177Z,27.67
2023-01-03T04:32:29.886Z,28.23
2023-01-03T04:34:58.441Z,24.53
2023-01-03T04:37:28.389Z,22.63
2023-01-03T04:39:56.980Z,22.73
2023-01-03T04:42:42.873Z,27.93
2023-01-03T04:45:12.753Z,23.93
2023-01-03T04:47:41.229Z,24.27
2023-01-03T04:50:10.848Z,21.47
2023-01-03T04:52:40.802Z,25.03
2023-01-03T04:55:10.267Z,20.33
2023-01-03T04:57:38.786Z,27.13
2023-01-03T05:00:09.168Z,25.87
2023-01-03T05:02:37.871Z,22.83
2023-01-03T05:05:07.532Z,21.83
2023-01-03T05:07:36.054Z,18.37
2023-01-03T05:10:06.769Z,21.27
2023-01-03T05:12:35.338Z,20.40
2023-01-03T05:15:03.941Z,16.03
2023-01-03T05:17:32.497Z,16.70
2023-01-03T05:20:18.550Z,24.00
2023-01-03T05:23:04.620Z,9.60
2023-01-03T05:25:52.749Z,16.50
2023-01-03T05:28:24.090Z,18.60
2023-01-03T05:30:52.913Z,16.23
2023-01-03T05:33:21.462Z,19.10
2023-01-03T05:35:50.976Z,17.13
2023-01-03T05:38:20.546Z,19.03
2023-01-03T05:40:50.748Z,22.13
2023-01-03T05:43:19.299Z,17.27
2023-01-03T05:45:51.606Z,17.80
2023-01-03T05:48:21.358Z,9.20
2023-01-03T05:50:51.232Z,20.27
2023-01-03T05:53:19.980Z,22.37
2023-01-03T05:55:50.466Z,27.55
2023-01-03T05:58:19.137Z,14.20
2023-01-03T06:00:48.903Z,13.80
2023-01-03T06:03:17.599Z,10.60
2023-01-03T06:05:50.399Z,12.00
2023-01-03T06:08:19.495Z,10.33
2023-01-03T06:10:49.738Z,54.10
2023-01-03T06:13:18.612Z,42.65
2023-01-03T06:16:07.839Z,14.20
2023-01-03T06:18:35.896Z,10.93
2023-01-03T06:21:05.372Z,8.77
2023-01-03T06:23:33.929Z,10.20
2023-01-03T06:26:10.907Z,10.60
2023-01-03T06:28:46.551Z,12.60
2023-01-03T06:31:17.405Z,12.77
2023-01-03T06:33:46.048Z,12.90
2023-01-03T06:36:17.410Z,11.03
2023-01-03T06:38:47.959Z,14.10
2023-01-03T06:41:19.173Z,13.50
2023-01-03T06:43:47.816Z,13.83
2023-01-03T06:46:33.925Z,15.80
2023-01-03T06:49:19.984Z,13.80
2023-01-03T06:52:07.501Z,11.70
2023-01-03T06:54:38.993Z,11.13
2023-01-03T06:57:09.305Z,17.73
2023-01-03T06:59:38.533Z,10.67
2023-01-03T07:02:07.929Z,15.73
2023-01-03T07:04:36.839Z,14.90
2023-01-03T07:07:05.881Z,15.23
2023-01-03T07:09:34.397Z,11.83
2023-01-03T07:12:23.816Z,12.60
2023-01-03T07:14:52.771Z,11.73
2023-01-03T07:17:21.452Z,15.13
2023-01-03T07:19:49.969Z,14.60
2023-01-03T07:22:18.498Z,10.90
2023-01-03T07:24:47.100Z,10.73
2023-01-03T07:27:15.703Z,11.17
2023-01-03T07:29:44.438Z,11.57
2023-01-03T07:32:14.485Z,10.37
2023-01-03T07:34:43.092Z,10.37
2023-01-03T07:37:11.703Z,10.20
2023-01-03T07:39:40.231Z,13.40
2023-01-03T07:42:27.047Z,12.70
2023-01-03T07:44:55.857Z,13.47
2023-01-03T07:47:25.862Z,12.60
2023-01-03T07:49:54.448Z,11.87
2023-01-03T07:52:23.064Z,11.63
2023-01-03T07:54:51.661Z,11.77
2023-01-03T07:57:20.272Z,10.67
2023-01-03T07:59:48.857Z,11.77
2023-01-03T08:02:17.610Z,11.17
2023-01-03T08:04:47.967Z,12.43
2023-01-03T08:07:16.721Z,22.27
2023-01-03T08:10:02.842Z,11.30
2023-01-03T08:12:48.756Z,9.13
2023-01-03T08:15:17.396Z,7.60
2023-01-03T08:17:45.998Z,8.70
2023-01-03T08:20:16.231Z,10.00
2023-01-03T08:22:44.794Z,7.47
2023-01-03T08:25:13.521Z,12.77
2023-01-03T08:27:48.211Z,11.70
2023-01-03T08:30:18.995Z,13.63
2023-01-03T08:32:47.729Z,12.83
2023-01-03T08:35:23.645Z,13.80
2023-01-03T08:37:53.427Z,11.20
2023-01-03T08:40:22.602Z,10.43
2023-01-03T08:42:51.041Z,11.90
2023-01-03T08:45:20.033Z,10.47
2023-01-03T08:47:49.108Z,11.77
2023-01-03T08:50:17.578Z,10.77
2023-01-03T08:52:47.456Z,12.77
2023-01-03T08:55:16.077Z,12.80
2023-01-03T08:57:44.570Z,13.47
2023-01-03T09:00:14.094Z,14.77
2023-01-03T09:02:45.802Z,10.93
2023-01-03T09:05:17.604Z,10.60
2023-01-03T09:07:47.731Z,8.37
2023-01-03T09:10:19.121Z,9.43
2023-01-03T09:12:47.669Z,9.20
2023-01-03T09:15:16.256Z,9.83
2023-01-03T09:17:45.615Z,8.90
2023-01-03T09:20:15.063Z,27.70
2023-01-03T09:22:43.632Z,8.60
2023-01-03T09:25:13.710Z,8.93
2023-01-03T09:27:47.052Z,9.50
2023-01-03T09:30:16.766Z,8.50
2023-01-03T09:32:45.212Z,8.30
2023-01-03T09:35:13.646Z,7.50
2023-01-03T09:37:48.515Z,12.23
2023-01-03T09:40:19.107Z,14.00
2023-01-03T09:43:04.972Z,11.43
2023-01-03T09:45:35.704Z,15.37
2023-01-03T09:48:06.454Z,15.57
2023-01-03T09:51:15.769Z,14.40
2023-01-03T09:53:48.957Z,10.50
2023-01-03T09:56:36.544Z,14.20
2023-01-03T09:59:30.565Z,12.00
2023-01-03T10:02:31.736Z,11.33
2023-01-03T10:05:22.557Z,9.30
2023-01-03T10:08:08.440Z,11.43
2023-01-03T10:10:46.131Z,10.87
2023-01-03T10:13:24.744Z,15.80
2023-01-03T10:16:00.594Z,13.60
2023-01-03T10:18:47.649Z,16.27
2023-01-03T10:21:26.581Z,13.27
2023-01-03T10:23:56.309Z,10.97
2023-01-03T10:26:32.585Z,12.63
2023-01-03T10:29:03.074Z,10.07
2023-01-03T10:31:44.471Z,9.37
2023-01-03T10:34:13.161Z,13.67
2023-01-03T10:36:41.674Z,14.63
2023-01-03T10:39:13.185Z,14.47
2023-01-03T10:41:45.947Z,15.50
2023-01-03T10:44:26.841Z,12.70
2023-01-03T10:46:57.993Z,19.93
2023-01-03T10:49:30.581Z,18.83
2023-01-03T10:52:02.452Z,16.20
2023-01-03T10:54:37.078Z,19.53
2023-01-03T10:57:07.224Z,17.83
2023-01-03T10:59:37.889Z,18.33
2023-01-03T11:02:17.877Z,12.60
2023-01-03T11:04:49.403Z,10.33
2023-01-03T11:07:18.288Z,13.90
2023-01-03T11:09:52.130Z,12.37
2023-01-03T11:12:29.640Z,12.33
2023-01-03T11:15:01.262Z,12.50
2023-01-03T11:17:30.853Z,12.80
2023-01-03T11:19:59.245Z,12.87
2023-01-03T11:22:38.158Z,10.37
2023-01-03T11:25:21.040Z,11.50
2023-01-03T11:28:25.218Z,8.60
2023-01-03T11:31:03.427Z,9.80
2023-01-03T11:34:09.133Z,10.50
2023-01-03T11:36:48.737Z,7.87
2023-01-03T11:39:40.169Z,8.47
2023-01-03T11:42:22.623Z,8.57
2023-01-03T11:45:24.830Z,7.20
2023-01-03T11:48:07.655Z,8.30
2023-01-03T11:50:50.633Z,8.93
2023-01-03T11:53:29.658Z,8.40
2023-01-03T11:56:13.869Z,8.47
2023-01-03T11:59:16.257Z,6.93
2023-01-03T12:02:26.411Z,17.23
2023-01-03T12:05:09.156Z,9.30
2023-01-03T12:07:49.016Z,8.43
2023-01-03T12:10:24.281Z,8.27
2023-01-03T12:13:11.124Z,9.70
2023-01-03T12:15:46.159Z,10.67
2023-01-03T12:18:25.086Z,9.13
2023-01-03T12:20:58.701Z,10.37
2023-01-03T12:23:38.995Z,16.13
2023-01-03T12:26:10.888Z,14.83
2023-01-03T12:28:42.143Z,16.47
2023-01-03T12:31:20.852Z,15.93
2023-01-03T12:33:59.029Z,14.27
2023-01-03T12:36:39.172Z,17.83
2023-01-03T12:39:27.505Z,15.33
2023-01-03T12:42:04.047Z,18.67
2023-01-03T12:44:38.980Z,19.00
2023-01-03T12:47:10.446Z,15.87
2023-01-03T12:49:45.027Z,15.40
2023-01-03T12:52:17.537Z,11.20
2023-01-03T12:54:53.269Z,10.93
2023-01-03T12:57:49.046Z,13.23
2023-01-03T13:00:39.775Z,10.60
2023-01-03T13:03:18.229Z,11.07
2023-01-03T13:05:51.338Z,9.00
2023-01-03T13:08:31.684Z,9.83
2023-01-03T13:11:03.807Z,13.13
2023-01-03T13:13:33.478Z,21.30
2023-01-03T13:16:30.697Z,17.67
2023-01-03T13:19:38.718Z,21.93
2023-01-03T13:22:20.077Z,23.97
2023-01-03T13:24:52.515Z,23.43
2023-01-03T13:27:37.428Z,18.60
2023-01-03T13:30:24.519Z,23.73
2023-01-03T13:32:57.009Z,14.20
2023-01-03T13:35:36.840Z,15.00
2023-01-03T13:38:27.207Z,9.17
2023-01-03T13:41:18.272Z,15.03
2023-01-03T13:43:52.869Z,24.03
2023-01-03T13:46:24.953Z,17.23
2023-01-03T13:48:59.421Z,21.57
2023-01-03T13:51:51.799Z,18.00
2023-01-03T13:55:09.361Z,16.30
2023-01-03T13:57:53.765Z,26.90
2023-01-03T14:00:24.265Z,22.67
2023-01-03T14:03:21.782Z,24.23
2023-01-03T14:06:29.467Z,19.93
2023-01-03T14:09:31.462Z,19.93
2023-01-03T14:12:24.699Z,14.27
2023-01-03T14:14:57.631Z,16.37
2023-01-03T14:17:30.767Z,13.17
2023-01-03T14:20:06.605Z,19.07
2023-01-03T14:22:39.676Z,14.37
2023-01-03T14:25:11.610Z,21.60
2023-01-03T14:27:41.724Z,20.70
2023-01-03T14:30:24.380Z,23.27
2023-01-03T14:32:53.150Z,19.80
2023-01-03T14:35:40.097Z,15.80
2023-01-03T14:38:24.243Z,8.53
2023-01-03T14:40:53.188Z,10.70
2023-01-03T14:43:21.959Z,12.13
2023-01-03T14:45:55.736Z,13.10
2023-01-03T14:48:25.949Z,13.37
2023-01-03T14:50:55.625Z,10.80
2023-01-03T14:53:24.681Z,14.43
2023-01-03T14:55:55.877Z,16.48
2023-01-03T14:58:33.271Z,14.17
2023-01-03T15:01:05.622Z,13.07
2023-01-03T15:03:38.342Z,10.90
2023-01-03T15:06:20.197Z,11.63
2023-01-03T15:08:50.905Z,14.57
2023-01-03T15:11:33.821Z,18.17
2023-01-03T15:14:04.944Z,16.57
2023-01-03T15:16:37.560Z,16.23
2023-01-03T15:19:14.084Z,14.57
2023-01-03T15:21:43.686Z,14.27
2023-01-03T15:24:17.016Z,12.20
2023-01-03T15:26:47.547Z,11.50
2023-01-03T15:29:18.548Z,9.73
2023-01-03T15:31:57.801Z,9.13
2023-01-03T15:34:40.275Z,8.53
2023-01-03T15:37:16.038Z,9.20
2023-01-03T15:39:46.821Z,9.40
2023-01-03T15:42:44.727Z,11.27
2023-01-03T15:45:19.508Z,10.37
2023-01-03T15:47:50.704Z,13.37
2023-01-03T15:50:20.643Z,13.50
2023-01-03T15:52:49.470Z,16.47
2023-01-03T15:55:19.079Z,15.93
2023-01-03T15:57:55.396Z,15.77
2023-01-03T16:00:26.256Z,14.93
2023-01-03T16:02:56.206Z,17.73
2023-01-03T16:05:24.818Z,16.20
2023-01-03T16:07:54.684Z,15.63
2023-01-03T16:10:23.498Z,17.30
2023-01-03T16:12:52.065Z,16.87
2023-01-03T16:15:25.842Z,19.60
2023-01-03T16:17:56.249Z,16.50
2023-01-03T16:20:25.937Z,14.67
2023-01-03T16:23:01.013Z,16.40
2023-01-03T16:25:30.433Z,16.27
2023-01-03T16:27:59.249Z,24.27
2023-01-03T16:30:28.078Z,19.03
2023-01-03T16:32:58.160Z,18.43
2023-01-03T16:35:27.158Z,15.17
2023-01-03T16:37:55.771Z,11.83
2023-01-03T16:40:24.311Z,12.67
2023-01-03T16:42:53.008Z,11.07
2023-01-03T16:45:21.688Z,14.60
2023-01-03T16:47:50.905Z,11.20
2023-01-03T16:50:23.056Z,12.37
2023-01-03T16:52:54.428Z,12.90
2023-01-03T16:55:28.203Z,12.10
2023-01-03T16:57:57.288Z,11.90
2023-01-03T17:00:27.593Z,14.17
2023-01-03T17:02:56.861Z,14.27
2023-01-03T17:05:27.507Z,16.77
2023-01-03T17:08:00.219Z,15.73
2023-01-03T17:10:32.956Z,15.57
2023-01-03T17:13:08.342Z,16.90
2023-01-03T17:15:41.049Z,16.10
2023-01-03T17:18:16.828Z,18.10
2023-01-03T17:20:47.224Z,16.63
2023-01-03T17:23:16.367Z,16.83
2023-01-03T17:25:45.170Z,16.93
2023-01-03T17:28:13.933Z,15.23
2023-01-03T17:30:44.349Z,20.13
2023-01-03T17:33:16.350Z,21.83
2023-01-03T17:35:48.563Z,22.17
2023-01-03T17:38:27.016Z,19.50
2023-01-03T17:40:57.588Z,18.50
2023-01-03T17:43:27.829Z,16.77
2023-01-03T17:46:23.067Z,18.10
2023-01-03T17:49:15.041Z,18.93
2023-01-03T17:51:47.369Z,15.50
2023-01-03T17:54:27.507Z,20.40
2023-01-03T17:56:58.530Z,24.53
2023-01-03T17:59:27.840Z,20.93
2023-01-03T18:01:57.582Z,26.57
2023-01-03T18:04:44.057Z,30.80
2023-01-03T18:07:22.123Z,24.67
2023-01-03T18:09:52.648Z,50.17
2023-01-03T18:12:23.995Z,21.07
2023-01-03T18:14:53.093Z,20.60
2023-01-03T18:17:29.250Z,39.03
2023-01-03T18:19:58.688Z,26.53
2023-01-03T18:22:29.447Z,21.47
2023-01-03T18:25:00.364Z,26.93
2023-01-03T18:27:29.878Z,23.20
2023-01-03T18:30:01.369Z,17.00
2023-01-03T18:32:32.283Z,17.13
2023-01-03T18:35:01.840Z,14.57
2023-01-03T18:37:37.321Z,18.70
2023-01-03T18:40:08.521Z,19.70
2023-01-03T18:42:57.686Z,18.20
2023-01-03T18:45:26.299Z,21.20
2023-01-03T18:47:56.964Z,22.73
2023-01-03T18:50:26.196Z,21.93
2023-01-03T18:52:57.395Z,19.50
2023-01-03T18:55:33.001Z,18.97
2023-01-03T18:58:09.119Z,20.70
2023-01-03T19:00:39.762Z,16.40
2023-01-03T19:03:21.774Z,20.47
2023-01-03T19:05:54.800Z,17.10
2023-01-03T19:08:28.903Z,13.40
2023-01-03T19:11:03.998Z,15.00
2023-01-03T19:13:50.555Z,15.33
2023-01-03T19:16:21.292Z,17.13
2023-01-03T19:18:50.206Z,16.23
2023-01-03T19:21:20.889Z,15.20
2023-01-03T19:23:58.657Z,18.03
2023-01-03T19:26:31.292Z,14.90
2023-01-03T19:29:02.063Z,15.73
2023-01-03T19:31:40.577Z,15.57
2023-01-03T19:34:17.138Z,16.33
2023-01-03T19:36:46.205Z,17.07
2023-01-03T19:39:19.731Z,16.03
2023-01-03T19:42:13.393Z,16.37
2023-01-03T19:44:42.856Z,15.80
2023-01-03T19:47:15.171Z,17.50
2023-01-03T19:49:47.435Z,18.47
2023-01-03T19:52:16.685Z,16.03
2023-01-03T19:54:46.942Z,16.33
2023-01-03T19:57:22.566Z,14.47
2023-01-03T19:59:55.042Z,13.30
2023-01-03T20:02:37.109Z,11.07
2023-01-03T20:05:16.042Z,11.60
2023-01-03T20:07:53.683Z,12.20
2023-01-03T20:10:25.543Z,10.50
2023-01-03T20:13:03.513Z,10.20
2023-01-03T20:15:34.342Z,13.13
2023-01-03T20:18:04.249Z,13.10
2023-01-03T20:20:35.208Z,11.10
2023-01-03T20:23:08.801Z,10.67
2023-01-03T20:25:39.115Z,11.33
2023-01-03T20:28:08.606Z,9.90
2023-01-03T20:30:39.010Z,10.73
2023-01-03T20:33:07.682Z,10.43
2023-01-03T20:36:09.828Z,11.60
2023-01-03T20:38:27.579Z,11.73
2023-01-03T20:41:00.852Z,11.97
2023-01-03T20:43:29.539Z,12.33
2023-01-03T20:46:03.132Z,12.53
2023-01-03T20:48:33.017Z,14.60
2023-01-03T20:51:01.986Z,14.07
2023-01-03T20:53:30.726Z,13.83
2023-01-03T20:56:03.784Z,15.43
2023-01-03T20:58:32.550Z,14.13
2023-01-03T21:01:05.508Z,14.33
2023-01-03T21:03:35.711Z,15.30
2023-01-03T21:06:05.989Z,18.63
2023-01-03T21:08:54.113Z,18.20
2023-01-03T21:11:25.134Z,20.17
2023-01-03T21:13:54.597Z,20.80
2023-01-03T21:16:35.384Z,17.95
2023-01-03T21:19:06.982Z,10.83
2023-01-03T21:21:35.927Z,12.83
2023-01-03T21:24:05.079Z,17.97
2023-01-03T21:26:35.496Z,17.17
2023-01-03T21:29:04.693Z,19.07
2023-01-03T21:31:35.400Z,19.63
2023-01-03T21:34:09.684Z,18.97
2023-01-03T21:36:38.353Z,18.67
2023-01-03T21:39:07.396Z,15.73
2023-01-03T21:41:58.808Z,18.83
2023-01-03T21:44:27.462Z,28.60
2023-01-03T21:46:55.982Z,14.43
2023-01-03T21:49:24.687Z,15.63
2023-01-03T21:51:53.337Z,13.57
2023-01-03T21:54:22.133Z,13.33
2023-01-03T21:56:52.218Z,15.30
2023-01-03T21:59:20.832Z,14.27
2023-01-03T22:02:07.147Z,12.23
2023-01-03T22:04:36.374Z,14.67
2023-01-03T22:07:04.887Z,14.03
2023-01-03T22:09:50.941Z,15.03
2023-01-03T22:12:21.608Z,12.97
2023-01-03T22:14:50.159Z,12.73
2023-01-03T22:17:18.885Z,13.03
2023-01-03T22:19:47.428Z,12.50
2023-01-03T22:22:16.065Z,11.17
2023-01-03T22:24:44.707Z,11.90
2023-01-03T22:27:13.370Z,13.93
2023-01-03T22:29:43.316Z,12.07
2023-01-03T22:32:12.093Z,11.40
2023-01-03T22:34:40.842Z,11.70
2023-01-03T22:37:09.453Z,13.37
2023-01-03T22:39:38.005Z,13.17
2023-01-03T22:42:06.837Z,12.50
2023-01-03T22:44:35.482Z,12.47
2023-01-03T22:47:06.342Z,14.27
2023-01-03T22:49:34.935Z,12.47
2023-01-03T22:52:03.918Z,14.60
2023-01-03T22:54:33.832Z,15.48
2023-01-03T22:57:03.427Z,14.50
2023-01-03T22:59:32.101Z,10.40
2023-01-03T23:02:01.187Z,11.00
2023-01-03T23:04:31.455Z,10.87
2023-01-03T23:07:00.071Z,11.03
2023-01-03T23:09:28.697Z,9.97
2023-01-03T23:12:14.949Z,10.80
2023-01-03T23:14:43.603Z,16.07
2023-01-03T23:17:29.671Z,12.23
2023-01-03T23:19:59.754Z,12.20
2023-01-03T23:22:28.438Z,14.60
2023-01-03T23:24:58.106Z,13.03
2023-01-03T23:27:27.604Z,14.07
2023-01-03T23:29:56.582Z,13.30
2023-01-03T23:32:25.198Z,13.13
2023-01-03T23:34:53.926Z,14.10
2023-01-03T23:37:23.982Z,12.83
2023-01-03T23:39:52.719Z,14.30
2023-01-03T23:42:21.392Z,12.90
2023-01-03T23:44:50.209Z,13.87
2023-01-03T23:47:19.190Z,13.93
2023-01-03T23:49:47.757Z,13.03
2023-01-03T23:52:16.406Z,13.53
2023-01-03T23:54:46.400Z,13.70
2023-01-03T23:57:15.041Z,13.13
2023-01-03T23:59:43.860Z,13.70
